METAR Data
IDs: Format: Raw Decoded Include TAF

Data at: 1707 UTC 16 Oct 2021

KGNC 161655Z AUTO 18006KT 10SM CLR 17/00 A3050 RMK AO2 T01711003
KGNC 161635Z AUTO 17007KT 10SM CLR 16/00 A3051 RMK AO2 T01601002
KGNC 161615Z AUTO 19009KT 10SM CLR 16/00 A3051 RMK AO2 T01560001
KGNC 161555Z AUTO 20006KT 10SM CLR 15/00 A3051 RMK AO2 T01460003
KGNC 161535Z AUTO 17006KT 10SM CLR 14/00 A3051 RMK AO2 T01430002
KGNC 161515Z AUTO 16005KT 10SM CLR 13/00 A3050 RMK AO2 T01300004
KGNC 161455Z AUTO 16003KT 10SM CLR 12/01 A3050 RMK AO2 T01200006
KGNC 161435Z AUTO 00000KT 10SM CLR 10/01 A3050 RMK AO2 T01030005
KGNC 161410Z AUTO 00000KT 10SM CLR 08/00 A3049 RMK AO2 T00780003
KGNC 161355Z AUTO 00000KT 10SM CLR 06/00 A3049 RMK AO2 T00590001
KGNC 161335Z AUTO 35003KT 10SM CLR 04/M01 A3048 RMK AO2 T00351008
KGNC 161315Z AUTO 31004KT 10SM CLR 03/M01 A3048 RMK AO2 T00251013
KGNC 161255Z AUTO 27003KT 10SM CLR 01/M02 A3048 RMK AO2 T00131020
KGNC 161235Z AUTO 26003KT 10SM CLR 01/M02 A3048 RMK AO2 T00111025
KGNC 161215Z AUTO 00000KT 10SM CLR 04/M01 A3047 RMK AO2 T00351010
KGNC 161150Z AUTO 00000KT 10SM CLR 03/M01 A3046 RMK AO2 T00311014 10088 20024
KGNC 161135Z AUTO 00000KT 10SM CLR 03/M01 A3045 RMK AO2 T00251013
KGNC 161115Z AUTO 00000KT 10SM CLR 03/M01 A3045 RMK AO2 T00341014
KGNC 161055Z AUTO 00000KT 10SM CLR 04/M01 A3045 RMK AO2 T00441010
KGNC 161035Z AUTO 00000KT 10SM CLR 05/M01 A3045 RMK AO2 T00461009
KGNC 161015Z AUTO 00000KT 10SM CLR 04/M01 A3044 RMK AO2 T00401012
KGNC 160955Z AUTO 00000KT 10SM CLR 04/M01 A3044 RMK AO2 T00391008
KGNC 160935Z AUTO 00000KT 10SM CLR 04/M01 A3044 RMK AO2 T00411009
KGNC 160920Z AUTO 27003KT 10SM CLR 04/M01 A3044 RMK AO2 T00421013
KGNC 160855Z AUTO 00000KT 10SM CLR 08/00 A3044 RMK AO2 T00771001
KGNC 160835Z AUTO 00000KT 10SM CLR 08/00 A3044 RMK AO2 T00820000
KGNC 160815Z AUTO 00000KT 10SM CLR 07/00 A3044 RMK AO2 T00741001
KGNC 160755Z AUTO 12005KT 10SM CLR 07/00 A3044 RMK AO2 T00721002
KGNC 160735Z AUTO 10005KT 10SM CLR 08/00 A3044 RMK AO2 T00791002
KGNC 160710Z AUTO 10006KT 10SM CLR 07/M01 A3043 RMK AO2 T00721006
KGNC 160655Z AUTO 00000KT 10SM CLR 07/M01 A3043 RMK AO2 T00741006
KGNC 160635Z AUTO 10005KT 10SM CLR 08/00 A3043 RMK AO2 T00761005
KGNC 160615Z AUTO 07005KT 10SM CLR 08/00 A3043 RMK AO2 T00811004
KGNC 160555Z AUTO 05005KT 10SM CLR 09/00 A3043 RMK AO2 T00881005 10175 20088 401940082
KGNC 160540Z AUTO 06005KT 7SM CLR 09/00 A3043 RMK AO2 T00911003
KGNC 160515Z AUTO 05005KT 10SM CLR 09/00 A3043 RMK AO2 T00891005
KGNC 160455Z AUTO 05005KT 7SM CLR 10/M01 A3042 RMK AO2 T00991006
KGNC 160435Z AUTO 05004KT 5SM HZ CLR 10/M01 A3042 RMK AO2 T01001008
KGNC 160415Z AUTO 06004KT 10SM CLR 10/M01 A3041 RMK AO2 T01011010
KGNC 160350Z AUTO 06005KT 10SM CLR 11/M01 A3040 RMK AO2 T01061010
KGNC 160335Z AUTO 05005KT 10SM CLR 11/M01 A3039 RMK AO2 T01101010
KGNC 160315Z AUTO 05004KT 10SM CLR 11/M01 A3039 RMK AO2 T01111011
KGNC 160255Z AUTO 05003KT 10SM CLR 11/M01 A3039 RMK AO2 T01131012
KGNC 160235Z AUTO 04004KT 10SM CLR 11/M01 A3037 RMK AO2 T01121014
KGNC 160215Z AUTO 05003KT 10SM CLR 12/M02 A3037 RMK AO2 T01161016
KGNC 160155Z AUTO 07003KT 10SM CLR 12/M02 A3036 RMK AO2 T01221016
KGNC 160135Z AUTO 04005KT 10SM CLR 14/M02 A3035 RMK AO2 T01371018
KGNC 160110Z AUTO 04006KT 10SM CLR 15/M02 A3034 RMK AO2 T01451020
KGNC 160055Z AUTO 03005KT 10SM CLR 15/M02 A3033 RMK AO2 T01481020
KGNC 160035Z AUTO 03005KT 10SM CLR 16/M02 A3033 RMK AO2 T01571020
KGNC 160015Z AUTO 04006KT 10SM CLR 17/M02 A3032 RMK AO2 T01671018
KGNC 152355Z AUTO 04007KT 10SM CLR 18/M02 A3031 RMK AO2 T01751017 10194 20164
KGNC 152335Z AUTO 04008KT 10SM CLR 18/M02 A3030 RMK AO2 T01811020
KGNC 152315Z AUTO 03007KT 10SM CLR 19/M02 A3030 RMK AO2 T01861017
KGNC 152255Z AUTO 01010G17KT 7SM CLR 19/M02 A3030 RMK AO2 T01881016
KGNC 152235Z AUTO 04008KT 10SM CLR 19/M01 A3030 RMK AO2 T01901015
KGNC 152215Z AUTO 05009KT 10SM CLR 19/M01 A3030 RMK AO2 T01911015
KGNC 152155Z AUTO 04011G17KT 10SM CLR 19/M01 A3030 RMK AO2 T01921012
KGNC 152135Z AUTO 01010G16KT 10SM CLR 19/M01 A3029 RMK AO2 T01931012
KGNC 152110Z AUTO 36008G19KT 10SM CLR 19/M01 A3029 RMK AO2 T01921012
KGNC 152055Z AUTO 36012G16KT 10SM CLR 19/M01 A3029 RMK AO2 T01871013
KGNC 152030Z AUTO 36011G16KT 10SM CLR 19/M01 A3029 RMK AO2 T01871011
KGNC 152015Z AUTO 01012G16KT 10SM CLR 19/M01 A3029 RMK AO2 T01871010
KGNC 151950Z AUTO 36010G20KT 10SM CLR 18/M01 A3029 RMK AO2 T01831006
KGNC 151935Z AUTO 36012G18KT 10SM CLR 18/00 A3029 RMK AO2 T01811004
KGNC 151915Z AUTO 36011G18KT 10SM CLR 18/00 A3030 RMK AO2 T01811001
KGNC 151855Z AUTO 01016G21KT 10SM CLR 17/00 A3030 RMK AO2 T01740002
KGNC 151835Z AUTO 36012G19KT 10SM CLR 18/01 A3031 RMK AO2 T01750007
KGNC 151815Z AUTO 02012G19KT 10SM CLR 17/01 A3031 RMK AO2 T01680009
KGNC 151750Z AUTO 02016G21KT 10SM CLR 17/01 A3032 RMK AO2 T01670012 10167 20082
KGNC 151735Z AUTO 03012G18KT 10SM CLR 17/01 A3032 RMK AO2 T01660013
KGNC 151715Z AUTO 03013G20KT 10SM CLR 15/02 A3032 RMK AO2 T01540016
KGNC 151655Z AUTO 02014G19KT 10SM CLR 15/02 A3032 RMK AO2 T01470020
KGNC 151635Z AUTO 03013G21KT 10SM CLR 14/03 A3032 RMK AO2 T01430026
KGNC 151615Z AUTO 02016G21KT 10SM CLR 14/03 A3031 RMK AO2 T01380030
KGNC 151555Z AUTO 04015G21KT 10SM CLR 14/03 A3030 RMK AO2 T01360030
KGNC 151535Z AUTO 02011G18KT 10SM CLR 13/03 A3030 RMK AO2 T01250031
KGNC 151515Z AUTO 02013G19KT 10SM CLR 12/03 A3029 RMK AO2 T01190032
KGNC 151455Z AUTO 01011KT 10SM CLR 11/03 A3028 RMK AO2 T01100032
KGNC 151435Z AUTO 01012G18KT 10SM CLR 10/03 A3027 RMK AO2 T01030030
KGNC 151415Z AUTO 01013G20KT 10SM CLR 10/03 A3025 RMK AO2 T00960028
KGNC 151355Z AUTO 01009G18KT 10SM CLR 09/03 A3024 RMK AO2 T00910026
KGNC 151335Z AUTO 36010G16KT 10SM CLR 09/03 A3022 RMK AO2 T00860025
KGNC 151315Z AUTO 36011G17KT 10SM CLR 08/02 A3021 RMK AO2 T00830020
KGNC 151255Z AUTO 36008KT 10SM CLR 08/02 A3020 RMK AO2 T00840015
KGNC 151235Z AUTO 36010G15KT 10SM CLR 09/01 A3018 RMK AO2 T00860010
KGNC 151215Z AUTO 36011G14KT 10SM CLR 09/01 A3016 RMK AO2 T00900005
KGNC 151155Z AUTO 36011G15KT 10SM CLR 09/00 A3016 RMK AO2 T00940000 10152 20094
KGNC 151135Z AUTO 36007KT 10SM CLR 10/M01 A3013 RMK AO2 T01001008
KGNC 151115Z AUTO 35009KT 10SM CLR 11/M02 A3012 RMK AO2 T01081025
KGNC 151055Z AUTO 35010KT 10SM CLR 10/M03 A3011 RMK AO2 T01041033
KGNC 151035Z AUTO 33008KT 10SM CLR 11/M04 A3009 RMK AO2 T01131037
KGNC 151015Z AUTO 32006KT 10SM CLR 11/M04 A3008 RMK AO2 T01071038
KGNC 150955Z AUTO 32006KT 10SM CLR 12/M04 A3006 RMK AO2 T01151040
KGNC 150935Z AUTO 32007KT 10SM CLR 11/M04 A3006 RMK AO2 T01121041
KGNC 150915Z AUTO 31006KT 10SM CLR 11/M04 A3005 RMK AO2 T01101040
KGNC 150855Z AUTO 31008KT 10SM CLR 11/M04 A3005 RMK AO2 T01071041
KGNC 150835Z AUTO 31006KT 10SM CLR 11/M04 A3003 RMK AO2 T01051043
KGNC 150815Z AUTO 32005KT 10SM CLR 11/M04 A3003 RMK AO2 T01051045
KGNC 150755Z AUTO 30004KT 10SM CLR 10/M05 A3003 RMK AO2 T00981050
KGNC 150735Z AUTO 27005KT 10SM CLR 11/M05 A3003 RMK AO2 T01061053
KGNC 150715Z AUTO 30004KT 10SM CLR 12/M05 A3003 RMK AO2 T01181055
KGNC 150655Z AUTO 27007KT 10SM CLR 13/M05 A3003 RMK AO2 T01291053
KGNC 150635Z AUTO 30010KT 10SM CLR 14/M05 A3001 RMK AO2 T01401055
KGNC 150615Z AUTO 30013KT 10SM CLR 14/M05 A3001 RMK AO2 T01411055
KGNC 150555Z AUTO 30012KT 10SM CLR 15/M06 A3002 RMK AO2 T01531061 10251 20153 402840067
KGNC 150535Z AUTO 28010KT 10SM CLR 16/M06 A3002 RMK AO2 T01621062
KGNC 150515Z AUTO 29011KT 10SM CLR 17/M06 A3002 RMK AO2 T01741060